»·PEaware :: N9193G KSBD-KEMT

N9193G :: KSBD-KEMT

FLIGHT INFORMATION

Flight Status: Arrived
Operator: Privately registered:
United States
More flights under this callsign
Pilot: Seung K. (26649)
Aircraft: CESSNA 206 STATIONAIR
(C206)
More flights by this aircraft type
Origin: KSBD San Bernardino Intl
United States
Destination: KEMT El Monte
United States
More flights between these airports :: More routes between these airports
Route: DCT
File this flight plan on PilotEdge
Remarks: CAT-07
Altitude:
(Current/Filed)
5,500ft
Speed:
(Current/Filed)
110kts
Departed: 14-Dec-19 06:12 PM
Arrived: 14-Dec-19 06:52 PM
Distance/Time
Traveled:
3066nm/0:40
Distance/Time
To Go:
Arrived

Flight Plot

Page will automatically refresh every two minutes.


Map Options




Map Legend


Flown Route
Filed Route
Departure Airport
Arrival Airport
Navaid (VOR, NDB)
Fix

Horizontal Profiles

Position Reports

Time Latitude Longitude Heading Altitude Ground
Speed
14-Dec-19 17:40 34.101499 -117.223293 180 1149ft 0kts
14-Dec-19 17:41 34.101499 -117.223293 180 1149ft 0kts
14-Dec-19 17:42 34.101499 -117.223293 180 1149ft 0kts
14-Dec-19 17:43 34.101499 -117.223293 180 1149ft 0kts
14-Dec-19 17:51 34.101497 -117.223298 180 1149ft 0kts
14-Dec-19 17:52 34.101497 -117.223298 180 1149ft 0kts
14-Dec-19 17:55 34.101493 -117.223310 180 1149ft 0kts
14-Dec-19 17:56 34.101493 -117.223310 180 1149ft 0kts
14-Dec-19 17:57 34.101462 -117.223310 180 1149ft 0kts
14-Dec-19 17:58 34.101409 -117.223311 180 1149ft 0kts
14-Dec-19 17:59 34.101360 -117.223312 180 1149ft 0kts
14-Dec-19 18:00 34.101308 -117.223312 180 1149ft 0kts
14-Dec-19 18:01 34.101255 -117.223313 180 1149ft 0kts
14-Dec-19 18:02 34.100490 -117.223844 221 1148ft 2kts
14-Dec-19 18:03 34.099659 -117.225450 250 1143ft 11kts
14-Dec-19 18:04 34.099239 -117.228252 250 1136ft 15kts
14-Dec-19 18:05 34.097928 -117.232647 248 1124ft 19kts
14-Dec-19 18:06 34.096343 -117.237975 246 1110ft 21kts
14-Dec-19 18:07 34.094687 -117.243553 249 1096ft 22kts
14-Dec-19 18:08 34.093042 -117.249107 249 1085ft 21kts
14-Dec-19 18:09 34.091653 -117.250762 161 1082ft 0kts
14-Dec-19 18:10 34.091638 -117.250756 161 1082ft 1kts
14-Dec-19 18:11 34.093489 -117.240562 74 1206ft 109kts
14-Dec-19 18:12 34.089142 -117.223710 181 2130ft 92kts
14-Dec-19 18:13 34.085693 -117.238632 283 2921ft 107kts
14-Dec-19 18:14 34.093481 -117.263513 278 2972ft 135kts
14-Dec-19 18:15 34.096962 -117.288089 270 3653ft 118kts
14-Dec-19 18:16 34.098265 -117.311619 266 4366ft 114kts
14-Dec-19 18:17 34.098659 -117.335904 265 5029ft 113kts
14-Dec-19 18:18 34.098619 -117.359212 264 5664ft 113kts
14-Dec-19 18:19 34.098325 -117.385237 265 5825ft 136kts
14-Dec-19 18:20 34.097970 -117.414717 265 5829ft 145kts
14-Dec-19 18:21 34.097560 -117.445789 264 5935ft 129kts
14-Dec-19 18:22 34.097138 -117.472723 264 5911ft 128kts
14-Dec-19 18:23 34.096681 -117.499370 264 5895ft 127kts
14-Dec-19 18:24 34.096206 -117.525618 264 5923ft 128kts
14-Dec-19 18:25 34.095756 -117.550344 264 5913ft 128kts
14-Dec-19 18:26 34.095322 -117.573925 264 5914ft 127kts
14-Dec-19 18:27 34.094878 -117.597624 264 5904ft 127kts
14-Dec-19 18:28 34.094427 -117.621581 264 5912ft 126kts
14-Dec-19 18:29 34.093944 -117.646697 264 5918ft 129kts
14-Dec-19 18:30 34.093495 -117.670326 264 5910ft 127kts
14-Dec-19 18:31 34.093037 -117.693834 264 5908ft 126kts
14-Dec-19 18:32 34.092584 -117.716814 264 5907ft 126kts
14-Dec-19 18:33 34.092115 -117.740367 264 5916ft 127kts
14-Dec-19 18:34 34.091575 -117.767551 264 5919ft 127kts
14-Dec-19 18:35 34.091135 -117.789333 264 5910ft 126kts
14-Dec-19 18:36 34.090678 -117.811725 264 5908ft 126kts
14-Dec-19 18:37 34.090183 -117.835702 264 5915ft 127kts
14-Dec-19 18:38 34.089693 -117.859367 264 5910ft 126kts
14-Dec-19 18:39 34.089250 -117.880587 264 5921ft 126kts
14-Dec-19 18:40 34.088778 -117.902805 264 5926ft 126kts
14-Dec-19 18:41 34.088686 -117.914487 265 5701ft 99kts
14-Dec-19 18:42 34.089495 -117.930711 263 5030ft 92kts
14-Dec-19 18:43 34.090491 -117.946827 278 4203ft 93kts
14-Dec-19 18:44 34.095205 -117.961485 286 3318ft 97kts
14-Dec-19 18:45 34.095879 -117.978393 258 2385ft 86kts
14-Dec-19 18:46 34.094628 -117.992922 261 1578ft 83kts
14-Dec-19 18:47 34.094484 -118.006283 265 1170ft 76kts
14-Dec-19 18:48 34.097876 -118.018380 283 972ft 71kts
14-Dec-19 18:49 34.095475 -118.028209 228 582ft 61kts
14-Dec-19 18:50 34.089109 -118.032981 210 309ft 46kts
14-Dec-19 18:51 34.085812 -118.034255 198 287ft 0kts
14-Dec-19 18:52 34.085812 -118.034255 198 287ft 0kts
14-Dec-19 18:53 34.085414 -118.033203 119 290ft 0kts
14-Dec-19 18:54 34.085402 -118.033178 119 290ft 0kts
14-Dec-19 18:55 34.085391 -118.033152 119 290ft 0kts
14-Dec-19 18:56 34.085379 -118.033126 119 290ft 0kts
14-Dec-19 18:57 34.085373 -118.033113 119 290ft 0kts
14-Dec-19 18:58 28.197536 -177.392715 68 30ft 0kts
14-Dec-19 18:59 28.197528 -177.392709 68 31ft 0kts
14-Dec-19 19:00 28.197527 -177.392704 68 29ft 0kts
14-Dec-19 19:01 28.215086 -177.355016 193 4ft 1kts
14-Dec-19 19:02 28.215086 -177.355016 193 4ft 1kts
14-Dec-19 19:03 28.197543 -177.392725 69 30ft 0kts
14-Dec-19 19:04 28.197523 -177.392717 68 33ft 0kts
14-Dec-19 19:05 28.197523 -177.392717 68 33ft 0kts

Navigation Log

Ident Type
Flight plan parsing failed, navigation log unavailable